Time;durP1;ratioP1;P1;durP2;ratioP2;P2;SDS_P1;SDS_P2;PMS_P1;PMS_P2;Temp;Humidity;BMP_temperature;BMP_pressure;BME280_temperature;BME280_humidity;BME280_pressure;Samples;Min_cycle;Max_cycle;Signal;HPM_P1;HPM_P2
2020/12/28 02:02:13;;;;;;;16.45;9.50;;;1.10;99.90;;;;;;6112670;22;875241;-72
2020/12/28 02:04:40;;;;;;;18.85;9.82;;;1.10;99.90;;;;;;6120142;23;20084;-72
2020/12/28 02:07:10;;;;;;;16.08;10.63;;;1.20;99.90;;;;;;6120246;23;20006;-72
2020/12/28 02:09:36;;;;;;;16.67;10.88;;;1.20;99.90;;;;;;6120172;23;20003;-71
2020/12/28 02:12:05;;;;;;;14.73;10.13;;;1.10;99.90;;;;;;6120278;23;20034;-72
2020/12/28 02:14:34;;;;;;;16.77;10.57;;;1.10;99.90;;;;;;6096853;23;20351;-72
2020/12/28 02:17:29;;;;;;;15.80;10.38;;;1.20;99.90;;;;;;6110615;23;20032;-72
2020/12/28 02:20:10;;;;;;;18.17;11.32;;;1.20;99.90;;;;;;6120125;23;20451;-72
2020/12/28 02:22:36;;;;;;;16.02;10.10;;;1.20;99.90;;;;;;6120258;23;20013;-72
2020/12/28 02:25:02;;;;;;;15.38;10.27;;;1.20;99.90;;;;;;6120079;23;20458;-72
2020/12/28 02:27:30;;;;;;;15.50;10.38;;;1.20;99.90;;;;;;6120182;23;20010;-72
2020/12/28 02:29:56;;;;;;;20.70;11.27;;;1.20;99.90;;;;;;6120024;23;20006;-70
2020/12/28 02:32:22;;;;;;;15.90;10.95;;;1.20;99.90;;;;;;6120254;23;20009;-71
2020/12/28 02:35:08;;;;;;;17.42;11.13;;;1.20;99.90;;;;;;6121214;23;20013;-72
2020/12/28 02:37:44;;;;;;;15.63;10.13;;;1.10;99.90;;;;;;6120081;23;20288;-72
2020/12/28 02:40:11;;;;;;;17.52;10.10;;;1.10;99.90;;;;;;6119869;23;20022;-72
2020/12/28 02:42:47;;;;;;;15.50;10.25;;;1.20;99.90;;;;;;6121630;23;20099;-72
2020/12/28 02:45:32;;;;;;;16.50;10.23;;;1.20;99.90;;;;;;6121632;23;20028;-72
2020/12/28 02:48:16;;;;;;;19.55;10.85;;;1.20;99.90;;;;;;6121450;23;20530;-72
2020/12/28 02:51:03;;;;;;;15.85;9.88;;;1.20;99.90;;;;;;6121408;23;20021;-72
2020/12/28 02:53:48;;;;;;;19.35;12.13;;;1.20;99.90;;;;;;6121597;23;20017;-72
2020/12/28 02:56:32;;;;;;;16.48;10.90;;;1.30;99.90;;;;;;6121430;23;20462;-72
2020/12/28 02:59:17;;;;;;;19.48;11.38;;;1.20;99.90;;;;;;6121519;23;20351;-72
2020/12/28 03:02:09;;;;;;;17.17;10.45;;;1.30;99.90;;;;;;6098712;23;20152;-75
2020/12/28 03:04:53;;;;;;;16.92;11.13;;;1.30;99.90;;;;;;6121491;23;20025;-72
2020/12/28 03:07:38;;;;;;;18.45;10.93;;;1.30;99.90;;;;;;6121518;23;20067;-72
2020/12/28 03:10:24;;;;;;;16.35;10.57;;;1.30;99.90;;;;;;6090927;23;20036;-72
2020/12/28 03:13:08;;;;;;;16.85;11.48;;;1.30;99.90;;;;;;6121501;23;20025;-72
2020/12/28 03:15:52;;;;;;;20.98;11.57;;;1.30;99.90;;;;;;6121490;23;20048;-72
2020/12/28 03:18:37;;;;;;;15.23;10.18;;;1.30;99.90;;;;;;6121413;23;20072;-74
2020/12/28 03:21:22;;;;;;;15.25;9.95;;;1.30;99.90;;;;;;6121507;23;20044;-72
2020/12/28 03:24:06;;;;;;;22.08;11.00;;;1.20;99.90;;;;;;6121435;23;20474;-72
2020/12/28 03:26:51;;;;;;;17.33;10.40;;;1.30;99.90;;;;;;6121406;23;20024;-72
2020/12/28 03:29:36;;;;;;;18.20;12.18;;;1.30;99.90;;;;;;6121024;23;20096;-72
2020/12/28 03:32:20;;;;;;;14.98;10.05;;;1.30;99.90;;;;;;6121522;23;20021;-72
2020/12/28 03:35:05;;;;;;;18.67;11.23;;;1.30;99.90;;;;;;6121245;23;20024;-72
2020/12/28 03:37:53;;;;;;;22.67;11.05;;;1.40;99.90;;;;;;6090492;23;20091;-72
2020/12/28 03:40:58;;;;;;;20.33;11.45;;;1.40;99.90;;;;;;6061487;23;20173;-72
2020/12/28 03:43:42;;;;;;;16.20;10.98;;;1.40;99.90;;;;;;6061054;23;20021;-73
2020/12/28 03:46:26;;;;;;;14.98;10.55;;;1.40;99.90;;;;;;6104016;23;20366;-73
2020/12/28 03:49:10;;;;;;;18.17;11.13;;;1.40;99.90;;;;;;6121346;23;20505;-72
2020/12/28 03:51:55;;;;;;;16.67;11.20;;;1.50;99.90;;;;;;6121460;23;20485;-73
2020/12/28 03:54:40;;;;;;;16.25;10.35;;;1.50;99.90;;;;;;6121508;23;20026;-73
2020/12/28 03:57:24;;;;;;;21.27;11.45;;;1.40;99.90;;;;;;6121193;23;20025;-73
2020/12/28 04:00:09;;;;;;;18.52;10.82;;;1.50;99.90;;;;;;6121215;23;20087;-73
2020/12/28 04:02:44;;;;;;;18.38;11.70;;;1.50;99.90;;;;;;6124865;23;20022;-73
2020/12/28 04:05:28;;;;;;;17.58;10.93;;;1.50;99.90;;;;;;6121174;23;20080;-73
2020/12/28 04:08:31;;;;;;;17.08;10.70;;;1.50;99.90;;;;;;6061160;23;20007;-73
2020/12/28 04:11:17;;;;;;;19.13;11.35;;;1.50;99.90;;;;;;6086102;23;20045;-73
2020/12/28 04:13:58;;;;;;;16.05;9.90;;;1.40;99.90;;;;;;6121147;23;20386;-73
2020/12/28 04:16:24;;;;;;;18.25;11.23;;;1.50;99.90;;;;;;6120990;23;20219;-72
2020/12/28 04:18:50;;;;;;;17.13;10.85;;;1.50;99.90;;;;;;6121009;23;20017;-73
2020/12/28 04:21:16;;;;;;;17.42;11.20;;;1.50;99.90;;;;;;6121085;23;20006;-73
2020/12/28 04:23:42;;;;;;;16.80;10.55;;;1.60;99.90;;;;;;6121070;23;20038;-73
2020/12/28 04:26:08;;;;;;;16.50;10.63;;;1.60;99.90;;;;;;6120865;23;20026;-73
2020/12/28 04:28:34;;;;;;;15.20;10.60;;;1.60;99.90;;;;;;6121133;23;20010;-73
2020/12/28 04:31:00;;;;;;;17.48;10.77;;;1.60;99.90;;;;;;6120904;23;20002;-73
2020/12/28 04:33:26;;;;;;;18.70;10.50;;;1.60;99.90;;;;;;6120948;23;20002;-73
2020/12/28 04:35:52;;;;;;;15.50;10.32;;;1.70;99.90;;;;;;6120829;23;20006;-73
2020/12/28 04:38:18;;;;;;;17.00;10.98;;;1.70;99.90;;;;;;6120914;23;20036;-73
2020/12/28 04:40:44;;;;;;;21.10;11.25;;;1.70;99.90;;;;;;6121395;23;20508;-73
2020/12/28 04:43:11;;;;;;;16.85;11.07;;;1.70;99.90;;;;;;6121993;23;20078;-73
2020/12/28 04:45:38;;;;;;;16.05;10.75;;;1.80;99.90;;;;;;6122116;23;20456;-73
2020/12/28 04:48:08;;;;;;;17.20;10.63;;;1.90;99.90;;;;;;6121933;23;20006;-73
2020/12/28 04:50:40;;;;;;;15.48;10.85;;;1.90;99.90;;;;;;6122100;23;20021;-73
2020/12/28 04:53:07;;;;;;;14.60;10.43;;;1.90;99.90;;;;;;6122005;23;20006;-73
2020/12/28 04:55:33;;;;;;;15.02;10.98;;;1.90;99.90;;;;;;6122114;23;20455;-73
2020/12/28 04:57:59;;;;;;;16.60;10.65;;;1.90;99.90;;;;;;6122063;23;20085;-73
2020/12/28 05:00:25;;;;;;;17.65;11.15;;;2.00;99.90;;;;;;6121950;23;20048;-73
2020/12/28 05:02:51;;;;;;;17.50;10.65;;;2.00;99.90;;;;;;6120579;23;20010;-73
2020/12/28 05:05:17;;;;;;;18.40;10.57;;;2.00;99.90;;;;;;6122053;23;20466;-73
2020/12/28 05:07:48;;;;;;;13.68;10.25;;;2.00;99.90;;;;;;6121933;23;20056;-73
2020/12/28 05:10:27;;;;;;;14.18;10.43;;;2.00;99.90;;;;;;6122028;23;20067;-72
2020/12/28 05:12:53;;;;;;;14.15;9.73;;;2.00;99.90;;;;;;6122104;23;20061;-72
2020/12/28 05:15:19;;;;;;;15.05;11.10;;;2.00;99.90;;;;;;6121881;23;20125;-73
2020/12/28 05:17:53;;;;;;;18.50;10.98;;;2.00;99.90;;;;;;6120431;23;20355;-73
2020/12/28 05:20:25;;;;;;;16.65;10.55;;;1.90;99.90;;;;;;6121992;23;20325;-73
2020/12/28 05:22:53;;;;;;;13.00;10.80;;;1.90;99.90;;;;;;6122132;23;20006;-73
2020/12/28 05:25:20;;;;;;;14.25;9.63;;;2.00;99.90;;;;;;6122039;23;20147;-73
2020/12/28 05:27:47;;;;;;;14.10;10.60;;;1.90;99.90;;;;;;6121908;23;20048;-73
2020/12/28 05:30:13;;;;;;;14.65;10.77;;;2.00;99.90;;;;;;6121884;23;20002;-73
2020/12/28 05:32:46;;;;;;;13.80;9.35;;;2.00;99.90;;;;;;6121710;23;20012;-73
2020/12/28 05:35:15;;;;;;;16.75;11.48;;;2.00;99.90;;;;;;6122006;23;20093;-73
2020/12/28 05:37:48;;;;;;;14.05;10.30;;;2.00;99.90;;;;;;6121702;23;19998;-72
2020/12/28 05:40:15;;;;;;;17.25;10.65;;;2.00;99.90;;;;;;6121880;23;20022;-73
2020/12/28 05:42:51;;;;;;;16.70;10.02;;;2.10;99.90;;;;;;6121717;23;20062;-72
2020/12/28 05:45:17;;;;;;;16.27;10.40;;;2.10;99.90;;;;;;6122014;23;20009;-73
2020/12/28 05:47:51;;;;;;;16.73;10.32;;;2.10;99.90;;;;;;6121841;23;20006;-72
2020/12/28 05:50:20;;;;;;;13.63;10.13;;;2.10;99.90;;;;;;6121981;23;20002;-73
2020/12/28 05:52:57;;;;;;;10.93;8.82;;;2.10;99.90;;;;;;6121611;23;20029;-73
2020/12/28 05:55:26;;;;;;;11.80;9.40;;;2.20;99.90;;;;;;6121736;23;20077;-73
2020/12/28 05:57:54;;;;;;;12.20;9.48;;;2.20;99.90;;;;;;6121744;23;20011;-72
2020/12/28 06:00:20;;;;;;;12.98;8.90;;;2.20;99.90;;;;;;6121649;23;20018;-73
2020/12/28 06:02:46;;;;;;;11.48;8.63;;;2.20;99.90;;;;;;6121223;23;20469;-73
2020/12/28 06:05:17;;;;;;;12.70;9.95;;;2.20;99.90;;;;;;6121498;23;20519;-73
2020/12/28 06:07:44;;;;;;;16.92;10.73;;;2.20;99.90;;;;;;6121622;23;20085;-73
2020/12/28 06:10:11;;;;;;;13.40;9.30;;;2.30;99.90;;;;;;6121377;23;19998;-72
2020/12/28 06:12:38;;;;;;;14.23;9.90;;;2.30;99.90;;;;;;6121539;23;20005;-72
2020/12/28 06:15:16;;;;;;;13.52;9.65;;;2.30;99.90;;;;;;6121575;23;20048;-73
2020/12/28 06:17:42;;;;;;;11.60;8.77;;;2.30;99.90;;;;;;6121534;23;20060;-73
2020/12/28 06:20:08;;;;;;;11.68;8.95;;;2.30;99.90;;;;;;6121692;23;20014;-73
2020/12/28 06:22:34;;;;;;;13.48;10.25;;;2.40;99.90;;;;;;6121317;23;20010;-73
2020/12/28 06:25:05;;;;;;;14.25;8.90;;;2.40;99.90;;;;;;6121572;23;20002;-73
2020/12/28 06:27:32;;;;;;;13.05;9.65;;;2.40;99.90;;;;;;6121450;23;20465;-73
2020/12/28 06:30:18;;;;;;;13.52;9.77;;;2.40;99.90;;;;;;6121564;23;20006;-73
2020/12/28 06:32:45;;;;;;;13.25;8.43;;;2.40;99.90;;;;;;6121567;23;20081;-73
2020/12/28 06:35:13;;;;;;;12.98;8.88;;;2.40;99.90;;;;;;6121582;23;20009;-73
2020/12/28 06:37:41;;;;;;;14.82;9.38;;;2.40;99.90;;;;;;6121265;23;20012;-73
2020/12/28 06:40:07;;;;;;;12.45;9.07;;;2.40;99.90;;;;;;6121456;23;20419;-73
2020/12/28 06:42:33;;;;;;;13.20;8.63;;;2.40;99.90;;;;;;6121474;23;20033;-72
2020/12/28 06:45:11;;;;;;;12.18;8.40;;;2.40;99.90;;;;;;6121337;23;20344;-60
2020/12/28 06:47:38;;;;;;;11.57;8.45;;;2.50;99.90;;;;;;6121308;23;20443;-70
2020/12/28 06:50:04;;;;;;;10.98;8.55;;;2.50;99.90;;;;;;6121145;23;20006;-70
2020/12/28 06:52:29;;;;;;;12.27;8.82;;;2.40;99.90;;;;;;6121242;23;20002;-70
2020/12/28 06:54:55;;;;;;;11.10;7.93;;;2.40;99.90;;;;;;6120811;23;20343;-69
2020/12/28 06:57:23;;;;;;;13.43;7.90;;;2.50;99.90;;;;;;6119330;23;20347;-65
2020/12/28 06:59:49;;;;;;;16.85;8.70;;;2.50;99.90;;;;;;6119811;23;20091;-67
2020/12/28 07:02:17;;;;;;;11.40;8.35;;;2.50;99.90;;;;;;6116977;23;20017;-66
2020/12/28 07:04:43;;;;;;;11.40;8.45;;;2.50;99.90;;;;;;6116127;23;20765;-65
2020/12/28 07:07:09;;;;;;;11.50;8.13;;;2.50;99.90;;;;;;6117114;23;20028;-67
2020/12/28 07:09:35;;;;;;;10.18;8.00;;;2.50;99.90;;;;;;6119407;23;20436;-66
2020/12/28 07:12:05;;;;;;;11.82;8.23;;;2.60;99.90;;;;;;6119437;23;20059;-65
2020/12/28 07:14:31;;;;;;;11.90;8.05;;;2.50;99.90;;;;;;6119872;23;20013;-65
2020/12/28 07:16:57;;;;;;;10.60;7.57;;;2.60;99.90;;;;;;6117563;23;20010;-68
2020/12/28 07:19:23;;;;;;;12.77;8.38;;;2.60;99.90;;;;;;6119650;23;20101;-65
2020/12/28 07:21:49;;;;;;;12.98;8.20;;;2.60;99.90;;;;;;6119703;23;20474;-65
2020/12/28 07:24:15;;;;;;;14.13;8.05;;;2.60;99.90;;;;;;6119234;23;20017;-63
2020/12/28 07:26:42;;;;;;;11.35;8.05;;;2.60;99.90;;;;;;6117989;23;20459;-66
2020/12/28 07:29:16;;;;;;;14.27;8.63;;;2.60;99.90;;;;;;6117278;23;20006;-61
2020/12/28 07:31:43;;;;;;;12.15;7.95;;;2.70;99.90;;;;;;6119079;23;20013;-67
2020/12/28 07:34:16;;;;;;;15.10;9.13;;;2.60;99.90;;;;;;6119606;23;20002;-72
2020/12/28 07:36:47;;;;;;;11.80;6.93;;;2.70;99.90;;;;;;6119389;23;20013;-70
2020/12/28 07:39:14;;;;;;;11.30;6.38;;;2.70;99.90;;;;;;6119278;23;20101;-71
2020/12/28 07:41:41;;;;;;;9.88;6.32;;;2.80;99.90;;;;;;6119225;23;20415;-69
2020/12/28 07:44:11;;;;;;;9.77;7.38;;;2.80;99.90;;;;;;6119468;23;20012;-70
2020/12/28 07:46:43;;;;;;;16.17;9.13;;;2.90;99.90;;;;;;6119468;23;20450;-68
2020/12/28 07:49:20;;;;;;;10.77;7.85;;;2.80;99.90;;;;;;6119260;23;20034;-71
2020/12/28 07:52:11;;;;;;;10.35;6.53;;;2.90;99.90;;;;;;6119248;23;20171;-71
2020/12/28 07:54:51;;;;;;;9.20;7.13;;;2.90;99.90;;;;;;6119468;23;20002;-71
2020/12/28 07:57:30;;;;;;;13.85;7.68;;;2.90;99.90;;;;;;6119450;23;20010;-71
2020/12/28 08:00:11;;;;;;;12.73;8.30;;;2.90;99.90;;;;;;6119167;23;20030;-71
2020/12/28 08:02:50;;;;;;;12.98;7.55;;;2.90;99.90;;;;;;6119429;23;20017;-73
2020/12/28 08:05:19;;;;;;;13.38;7.60;;;3.00;99.90;;;;;;6119133;23;20013;-71
2020/12/28 08:07:45;;;;;;;13.65;7.45;;;2.90;99.90;;;;;;6119449;23;20006;-64
2020/12/28 08:10:11;;;;;;;11.23;6.43;;;2.90;99.90;;;;;;6119377;23;20355;-71
2020/12/28 08:12:42;;;;;;;8.75;6.55;;;2.90;99.90;;;;;;6119535;23;20002;-68
2020/12/28 08:15:08;;;;;;;9.23;6.60;;;3.00;99.90;;;;;;6119264;23;20010;-65
2020/12/28 08:17:34;;;;;;;10.50;7.40;;;3.00;99.90;;;;;;6119220;23;20470;-68
2020/12/28 08:20:13;;;;;;;10.30;6.95;;;3.10;99.90;;;;;;6119176;23;20061;-71
2020/12/28 08:22:40;;;;;;;8.00;6.68;;;3.20;99.90;;;;;;6119151;23;20017;-69
2020/12/28 08:25:08;;;;;;;9.82;6.80;;;3.30;99.90;;;;;;6119522;23;20002;-68
2020/12/28 08:27:34;;;;;;;11.52;6.93;;;3.30;99.90;;;;;;6119554;23;20013;-72
2020/12/28 08:30:05;;;;;;;10.10;6.68;;;3.40;99.90;;;;;;6119322;23;20006;-73
2020/12/28 08:32:31;;;;;;;11.20;7.28;;;3.40;99.90;;;;;;6119101;23;20049;-72
2020/12/28 08:34:58;;;;;;;7.35;6.15;;;3.40;99.90;;;;;;6118961;23;20352;-69
2020/12/28 08:37:25;;;;;;;11.32;6.88;;;3.40;99.90;;;;;;6119174;23;20399;-71
2020/12/28 08:39:51;;;;;;;10.25;7.18;;;3.50;99.90;;;;;;6118859;23;20013;-71
2020/12/28 08:42:53;;;;;;;10.77;6.68;;;3.40;99.90;;;;;;6119180;23;20006;-72
2020/12/28 08:45:28;;;;;;;9.55;6.75;;;3.50;99.90;;;;;;6127814;23;20014;-69
2020/12/28 08:47:58;;;;;;;7.38;5.93;;;3.50;99.90;;;;;;6119008;23;20013;-69
2020/12/28 08:50:25;;;;;;;8.65;6.00;;;3.60;99.90;;;;;;6119116;23;19998;-65
2020/12/28 08:52:54;;;;;;;6.78;5.85;;;3.70;99.90;;;;;;6118918;23;20028;-68
2020/12/28 08:55:21;;;;;;;8.20;5.57;;;4.00;99.90;;;;;;6119104;23;20053;-68
2020/12/28 08:57:55;;;;;;;9.77;5.47;;;4.10;99.90;;;;;;6118880;23;20010;-69
2020/12/28 09:00:24;;;;;;;6.88;5.20;;;4.30;99.90;;;;;;6116560;23;20108;-70
2020/12/28 09:02:57;;;;;;;7.15;5.35;;;4.30;99.90;;;;;;6116384;23;20010;-72
2020/12/28 09:05:24;;;;;;;8.25;5.90;;;4.30;99.90;;;;;;6114221;23;20017;-74
2020/12/28 09:07:50;;;;;;;9.13;5.53;;;4.30;99.90;;;;;;6116581;23;20009;-72
2020/12/28 09:10:16;;;;;;;8.18;5.50;;;4.30;99.90;;;;;;6116290;23;20231;-68
2020/12/28 09:12:42;;;;;;;8.55;5.97;;;4.40;99.90;;;;;;6116585;23;20002;-62
2020/12/28 09:15:09;;;;;;;8.40;6.05;;;4.40;99.90;;;;;;6116212;23;20013;-69
2020/12/28 09:17:35;;;;;;;6.85;5.15;;;4.50;99.90;;;;;;6116318;23;20500;-71
2020/12/28 09:20:03;;;;;;;7.57;5.28;;;4.60;99.90;;;;;;6116105;23;20022;-65
2020/12/28 09:22:29;;;;;;;10.02;5.82;;;4.60;99.90;;;;;;6116016;23;20008;-65
2020/12/28 09:24:54;;;;;;;5.38;4.68;;;4.60;99.90;;;;;;6116546;23;20033;-64
2020/12/28 09:27:20;;;;;;;7.32;5.28;;;4.50;99.90;;;;;;6117405;23;20451;-66
2020/12/28 09:29:46;;;;;;;6.68;5.18;;;4.40;99.90;;;;;;6117906;23;20010;-72
2020/12/28 09:32:12;;;;;;;9.38;5.32;;;4.40;99.90;;;;;;6117898;23;20002;-67
2020/12/28 09:34:38;;;;;;;7.97;5.18;;;4.30;99.90;;;;;;6117603;23;20010;-69
2020/12/28 09:37:06;;;;;;;8.38;5.68;;;4.40;99.90;;;;;;6117929;23;20082;-70
2020/12/28 09:39:32;;;;;;;6.75;5.82;;;4.60;99.90;;;;;;6117522;23;20014;-73
2020/12/28 09:41:59;;;;;;;10.43;6.57;;;4.80;99.90;;;;;;6118080;23;20006;-73
2020/12/28 09:44:25;;;;;;;9.65;5.70;;;4.90;99.90;;;;;;6117858;23;20025;-65
2020/12/28 09:46:52;;;;;;;12.10;6.15;;;5.00;99.90;;;;;;6117538;23;19998;-72
2020/12/28 09:49:18;;;;;;;9.35;6.95;;;4.90;99.90;;;;;;6117598;23;20096;-70
2020/12/28 09:51:48;;;;;;;9.23;6.30;;;4.80;99.90;;;;;;6116924;23;19998;-64
2020/12/28 09:54:14;;;;;;;11.38;6.80;;;4.90;99.90;;;;;;6117551;23;20470;-60
2020/12/28 09:56:40;;;;;;;9.30;6.28;;;5.20;99.90;;;;;;6117402;23;20057;-68
2020/12/28 09:59:06;;;;;;;10.27;7.78;;;5.40;99.90;;;;;;6117330;23;20022;-60
2020/12/28 10:01:32;;;;;;;10.65;6.93;;;5.40;99.90;;;;;;6117583;23;20009;-60
2020/12/28 10:03:58;;;;;;;8.75;7.15;;;5.50;99.90;;;;;;6118379;23;20044;-61
2020/12/28 10:06:34;;;;;;;10.13;7.57;;;5.80;99.90;;;;;;6119048;23;20395;-60
2020/12/28 10:09:06;;;;;;;12.07;7.78;;;6.30;99.90;;;;;;6121390;23;20010;-59
2020/12/28 10:11:32;;;;;;;9.90;6.28;;;6.80;99.90;;;;;;6121380;23;20095;-58
2020/12/28 10:13:58;;;;;;;12.45;7.07;;;7.30;99.90;;;;;;6121389;23;20109;-60
2020/12/28 10:16:29;;;;;;;6.88;5.90;;;7.60;99.90;;;;;;6121090;23;20033;-59
2020/12/28 10:18:55;;;;;;;7.40;5.75;;;7.90;99.90;;;;;;6121325;23;20339;-70
2020/12/28 10:21:23;;;;;;;8.45;6.03;;;8.00;99.90;;;;;;6121568;23;20037;-64
2020/12/28 10:23:49;;;;;;;10.05;5.82;;;8.30;99.90;;;;;;6121204;23;20009;-68
2020/12/28 10:26:18;;;;;;;6.07;5.47;;;8.80;99.90;;;;;;6121298;23;20022;-65
2020/12/28 10:28:44;;;;;;;8.57;5.80;;;8.90;99.90;;;;;;6121089;23;20010;-63
2020/12/28 10:31:12;;;;;;;8.68;5.50;;;8.90;99.90;;;;;;6121335;23;20390;-64
